createdAt,value
2019-03-16T00:00:24.201Z,99571.00
2019-03-16T00:02:53.634Z,99569.00
2019-03-16T00:05:23.154Z,99572.00
2019-03-16T00:07:52.541Z,99589.00
2019-03-16T00:10:22.051Z,99587.00
2019-03-16T00:12:51.411Z,99611.00
2019-03-16T00:15:20.787Z,99607.00
2019-03-16T00:17:50.267Z,99597.00
2019-03-16T00:20:20.791Z,99597.00
2019-03-16T00:22:50.214Z,99610.00
2019-03-16T00:25:19.599Z,99617.00
2019-03-16T00:27:48.970Z,99625.00
2019-03-16T00:30:18.340Z,99614.00
2019-03-16T00:32:48.007Z,99629.00
2019-03-16T00:35:17.373Z,99633.00
2019-03-16T00:37:46.837Z,99665.00
2019-03-16T00:40:16.278Z,99647.00
2019-03-16T00:42:45.718Z,99646.00
2019-03-16T00:45:15.564Z,99662.00
2019-03-16T00:47:44.939Z,99636.00
2019-03-16T00:50:15.268Z,99656.00
2019-03-16T00:52:44.711Z,99656.00
2019-03-16T00:55:15.091Z,99651.00
2019-03-16T00:57:44.479Z,99664.00
2019-03-16T01:00:17.073Z,99658.00
2019-03-16T01:02:46.577Z,99662.00
2019-03-16T01:05:16.613Z,99664.00
2019-03-16T01:07:46.037Z,99676.00
2019-03-16T01:10:15.504Z,99675.00
2019-03-16T01:12:44.871Z,99674.00
2019-03-16T01:15:15.086Z,99676.00
2019-03-16T01:17:44.541Z,99680.00
2019-03-16T01:20:14.580Z,99681.00
2019-03-16T01:22:44.283Z,99684.00
2019-03-16T01:25:13.644Z,99692.00
2019-03-16T01:27:43.017Z,99699.00
2019-03-16T01:30:17.113Z,99704.00
2019-03-16T01:32:46.471Z,99695.00
2019-03-16T01:35:15.841Z,99705.00
2019-03-16T01:37:45.243Z,99697.00
2019-03-16T01:40:14.602Z,99700.00
2019-03-16T01:42:44.092Z,99718.00
2019-03-16T01:45:13.538Z,99722.00
2019-03-16T01:47:42.908Z,99724.00
2019-03-16T01:50:13.292Z,99712.00
2019-03-16T01:52:42.668Z,99715.00
2019-03-16T01:55:12.114Z,99717.00
2019-03-16T01:57:42.559Z,99729.00
2019-03-16T02:00:15.775Z,99724.00
2019-03-16T02:02:54.914Z,99734.00
2019-03-16T02:05:16.302Z,99739.00
2019-03-16T02:07:45.790Z,99725.00
2019-03-16T02:10:15.132Z,99744.00
2019-03-16T02:12:44.489Z,99728.00
2019-03-16T02:15:14.237Z,99732.00
2019-03-16T02:17:43.610Z,99726.00
2019-03-16T02:20:13.158Z,99748.00
2019-03-16T02:22:42.886Z,99743.00
2019-03-16T02:25:12.244Z,99743.00
2019-03-16T02:27:41.614Z,99759.00
2019-03-16T02:30:13.105Z,99777.00
2019-03-16T02:32:42.793Z,99771.00
2019-03-16T02:35:12.171Z,99765.00
2019-03-16T02:37:41.529Z,99786.00
2019-03-16T02:40:11.942Z,99788.00
2019-03-16T02:42:41.310Z,99787.00
2019-03-16T02:45:11.580Z,99790.00
2019-03-16T02:47:40.945Z,99795.00
2019-03-16T02:50:12.699Z,99803.00
2019-03-16T02:52:42.067Z,99813.00
2019-03-16T02:55:11.459Z,99806.00
2019-03-16T02:57:40.853Z,99812.00
2019-03-16T03:00:13.741Z,99821.00
2019-03-16T03:02:43.195Z,99839.00
2019-03-16T03:05:12.625Z,99821.00
2019-03-16T03:07:42.003Z,99813.00
2019-03-16T03:10:14.979Z,99828.00
2019-03-16T03:12:44.350Z,99829.00
2019-03-16T03:15:13.689Z,99830.00
2019-03-16T03:17:43.056Z,99834.00
2019-03-16T03:20:12.578Z,99836.00
2019-03-16T03:22:42.402Z,99840.00
2019-03-16T03:25:11.767Z,99855.00
2019-03-16T03:27:41.380Z,99863.00
2019-03-16T03:30:13.488Z,99847.00
2019-03-16T03:32:42.936Z,99867.00
2019-03-16T03:35:12.513Z,99869.00
2019-03-16T03:37:41.923Z,99870.00
2019-03-16T03:40:12.604Z,99858.00
2019-03-16T03:42:41.949Z,99866.00
2019-03-16T03:45:13.676Z,99879.00
2019-03-16T03:47:43.046Z,99882.00
2019-03-16T03:50:16.773Z,99895.00
2019-03-16T03:52:46.163Z,99899.00
2019-03-16T03:55:16.173Z,99895.00
2019-03-16T03:57:45.539Z,99894.00
2019-03-16T04:00:19.680Z,99895.00
2019-03-16T04:02:50.968Z,99909.00
2019-03-16T04:05:20.344Z,99910.00
2019-03-16T04:07:49.712Z,99928.00
2019-03-16T04:10:19.163Z,99918.00
2019-03-16T04:12:48.531Z,99920.00
2019-03-16T04:15:17.900Z,99936.00
2019-03-16T04:17:47.260Z,99925.00
2019-03-16T04:20:16.792Z,99938.00
2019-03-16T04:22:46.194Z,99958.00
2019-03-16T04:25:15.548Z,99946.00
2019-03-16T04:27:44.912Z,99953.00
2019-03-16T04:30:14.553Z,99958.00
2019-03-16T04:32:43.989Z,99957.00
2019-03-16T04:35:13.349Z,99965.00
2019-03-16T04:37:42.733Z,99963.00
2019-03-16T04:40:12.661Z,99973.00
2019-03-16T04:42:42.024Z,99954.00
2019-03-16T04:45:13.239Z,99963.00
2019-03-16T04:47:42.610Z,99968.00
2019-03-16T04:50:13.289Z,99968.00
2019-03-16T04:52:42.687Z,99980.00
2019-03-16T04:55:12.138Z,99976.00
2019-03-16T04:57:41.510Z,99983.00
2019-03-16T05:00:13.741Z,99975.00
2019-03-16T05:02:43.088Z,99990.00
2019-03-16T05:05:13.581Z,99990.00
2019-03-16T05:07:42.981Z,100004.00
2019-03-16T05:10:13.187Z,99995.00
2019-03-16T05:12:42.558Z,99988.00
2019-03-16T05:15:12.087Z,99987.00
2019-03-16T05:17:41.462Z,99990.00
2019-03-16T05:20:12.542Z,99994.00
2019-03-16T05:22:41.920Z,99994.00
2019-03-16T05:25:12.206Z,99997.00
2019-03-16T05:27:41.565Z,100010.00
2019-03-16T05:30:16.056Z,100013.00
2019-03-16T05:32:45.433Z,100006.00
2019-03-16T05:35:14.804Z,100017.00
2019-03-16T05:37:44.200Z,100019.00
2019-03-16T05:40:13.575Z,100026.00
2019-03-16T05:42:42.942Z,100016.00
2019-03-16T05:45:12.394Z,100037.00
2019-03-16T05:47:41.758Z,100043.00
2019-03-16T05:50:14.962Z,100040.00
2019-03-16T05:52:44.835Z,100048.00
2019-03-16T05:55:14.215Z,100049.00
2019-03-16T05:57:43.593Z,100055.00
2019-03-16T06:00:15.685Z,100056.00
2019-03-16T06:02:45.051Z,100073.00
2019-03-16T06:05:14.420Z,100069.00
2019-03-16T06:07:45.350Z,100074.00
2019-03-16T06:10:14.729Z,100069.00
2019-03-16T06:12:46.631Z,100076.00
2019-03-16T06:15:15.311Z,100082.00
2019-03-16T06:17:44.949Z,100076.00
2019-03-16T06:20:15.665Z,100079.00
2019-03-16T06:22:45.045Z,100096.00
2019-03-16T06:25:14.432Z,100105.00
2019-03-16T06:27:43.801Z,100093.00
2019-03-16T06:30:16.209Z,100120.00
2019-03-16T06:32:45.608Z,100119.00
2019-03-16T06:35:24.593Z,100121.00
2019-03-16T06:37:45.921Z,100111.00
2019-03-16T06:40:15.362Z,100114.00
2019-03-16T06:42:44.799Z,100116.00
2019-03-16T06:45:14.252Z,100122.00
2019-03-16T06:47:43.633Z,100128.00
2019-03-16T06:50:14.924Z,100124.00
2019-03-16T06:52:45.036Z,100136.00
2019-03-16T06:55:14.474Z,100122.00
2019-03-16T06:57:43.848Z,100125.00
2019-03-16T07:00:16.430Z,100138.00
2019-03-16T07:02:45.798Z,100138.00
2019-03-16T07:05:15.248Z,100135.00
2019-03-16T07:07:44.639Z,100136.00
2019-03-16T07:10:15.904Z,100153.00
2019-03-16T07:12:45.292Z,100142.00
2019-03-16T07:15:16.485Z,100153.00
2019-03-16T07:17:45.869Z,100162.00
2019-03-16T07:20:16.191Z,100161.00
2019-03-16T07:22:45.594Z,100168.00
2019-03-16T07:25:14.958Z,100165.00
2019-03-16T07:27:44.357Z,100170.00
2019-03-16T07:30:15.360Z,100165.00
2019-03-16T07:32:44.776Z,100168.00
2019-03-16T07:35:14.122Z,100169.00
2019-03-16T07:37:44.542Z,100195.00
2019-03-16T07:40:15.559Z,100178.00
2019-03-16T07:42:44.941Z,100185.00
2019-03-16T07:45:14.845Z,100196.00
2019-03-16T07:47:44.237Z,100191.00
2019-03-16T07:50:14.770Z,100199.00
2019-03-16T07:52:44.147Z,100212.00
2019-03-16T07:55:13.526Z,100197.00
2019-03-16T07:57:42.904Z,100199.00
2019-03-16T08:00:13.568Z,100200.00
2019-03-16T08:02:42.937Z,100203.00
2019-03-16T08:05:18.735Z,100205.00
2019-03-16T08:07:43.756Z,100217.00
2019-03-16T08:10:13.676Z,100217.00
2019-03-16T08:12:44.362Z,100219.00
2019-03-16T08:15:14.389Z,100207.00
2019-03-16T08:17:43.796Z,100214.00
2019-03-16T08:20:13.711Z,100223.00
2019-03-16T08:22:43.107Z,100221.00
2019-03-16T08:25:12.480Z,100232.00
2019-03-16T08:27:53.635Z,100240.00
2019-03-16T08:30:13.259Z,100239.00
2019-03-16T08:32:42.639Z,100248.00
2019-03-16T08:35:12.273Z,100259.00
2019-03-16T08:37:41.755Z,100256.00
2019-03-16T08:40:12.477Z,100253.00
2019-03-16T08:42:41.850Z,100254.00
2019-03-16T08:45:12.001Z,100247.00
2019-03-16T08:47:41.377Z,100248.00
2019-03-16T08:50:12.255Z,100255.00
2019-03-16T08:52:41.639Z,100254.00
2019-03-16T08:55:11.519Z,100260.00
2019-03-16T08:57:40.978Z,100200.00
2019-03-16T09:00:13.278Z,100254.00
2019-03-16T09:02:42.648Z,100247.00
2019-03-16T09:05:12.031Z,100251.00
2019-03-16T09:07:41.428Z,100252.00
2019-03-16T09:10:11.317Z,100249.00
2019-03-16T09:12:40.708Z,100243.00
2019-03-16T09:15:37.994Z,100249.00
2019-03-16T09:18:07.378Z,100254.00
2019-03-16T09:20:36.757Z,100250.00
2019-03-16T09:23:06.149Z,100252.00
2019-03-16T09:25:35.599Z,100250.00
2019-03-16T09:28:04.977Z,100247.00
2019-03-16T09:30:34.377Z,100251.00
2019-03-16T09:33:04.074Z,100247.00
2019-03-16T09:35:33.473Z,100260.00
2019-03-16T09:38:05.187Z,100264.00
2019-03-16T09:40:33.984Z,100262.00
2019-03-16T09:43:03.356Z,100271.00
2019-03-16T09:45:32.746Z,100261.00
2019-03-16T09:48:02.193Z,100274.00
2019-03-16T09:50:31.567Z,100261.00
2019-03-16T09:53:00.972Z,100278.00
2019-03-16T09:55:30.348Z,100280.00
2019-03-16T09:57:59.801Z,100265.00
2019-03-16T10:00:29.229Z,100262.00
2019-03-16T10:02:58.585Z,100260.00
2019-03-16T10:05:27.964Z,100269.00
2019-03-16T10:07:57.363Z,100270.00
2019-03-16T10:10:26.749Z,100269.00
2019-03-16T10:12:56.124Z,100265.00
2019-03-16T10:15:25.516Z,100268.00
2019-03-16T10:17:55.155Z,100268.00
2019-03-16T10:20:24.462Z,100269.00
2019-03-16T10:22:53.877Z,100252.00
2019-03-16T10:25:23.244Z,100261.00
2019-03-16T10:27:52.613Z,100258.00
2019-03-16T10:30:22.029Z,100265.00
2019-03-16T10:32:53.009Z,100255.00
2019-03-16T10:35:22.399Z,100259.00
2019-03-16T10:37:51.803Z,100262.00
2019-03-16T10:40:21.174Z,100257.00
2019-03-16T10:42:50.542Z,100259.00
2019-03-16T10:45:20.322Z,100265.00
2019-03-16T10:47:49.703Z,100261.00
2019-03-16T10:50:19.078Z,100266.00
2019-03-16T10:52:48.463Z,100265.00
2019-03-16T10:55:17.837Z,100265.00
2019-03-16T10:57:47.214Z,100271.00
2019-03-16T11:00:17.956Z,100272.00
2019-03-16T11:02:47.317Z,100275.00
2019-03-16T11:05:16.856Z,100287.00
2019-03-16T11:07:46.286Z,100272.00
2019-03-16T11:10:15.826Z,100265.00
2019-03-16T11:12:45.199Z,100275.00
2019-03-16T11:15:15.279Z,100265.00
2019-03-16T11:17:44.667Z,100262.00
2019-03-16T11:20:18.988Z,100258.00
2019-03-16T11:22:48.479Z,100253.00
2019-03-16T11:25:17.856Z,100250.00
2019-03-16T11:27:47.228Z,100253.00
2019-03-16T11:30:18.329Z,100245.00
2019-03-16T11:32:47.697Z,100248.00
2019-03-16T11:35:17.076Z,100253.00
2019-03-16T11:37:46.478Z,100264.00
2019-03-16T11:40:39.661Z,100269.00
2019-03-16T11:43:09.259Z,100262.00
2019-03-16T11:45:38.638Z,100247.00
2019-03-16T11:48:08.036Z,100267.00
2019-03-16T11:50:37.406Z,100273.00
2019-03-16T11:53:06.769Z,100257.00
2019-03-16T11:55:36.397Z,100262.00
2019-03-16T11:58:05.798Z,100268.00
2019-03-16T12:00:35.174Z,100261.00
2019-03-16T12:03:04.621Z,100263.00
2019-03-16T12:05:34.502Z,100268.00
2019-03-16T12:08:03.879Z,100270.00
2019-03-16T12:10:33.247Z,100279.00
2019-03-16T12:13:02.650Z,100273.00
2019-03-16T12:15:32.019Z,100276.00
2019-03-16T12:18:01.390Z,100268.00
2019-03-16T12:20:30.789Z,100282.00
2019-03-16T12:23:00.910Z,100279.00
2019-03-16T12:25:30.608Z,100276.00
2019-03-16T12:28:00.168Z,100274.00
2019-03-16T12:30:29.736Z,100282.00
2019-03-16T12:33:00.258Z,100285.00
2019-03-16T12:35:29.663Z,100283.00
2019-03-16T12:38:00.087Z,100281.00
2019-03-16T12:40:29.480Z,100272.00
2019-03-16T12:43:02.108Z,100271.00
2019-03-16T12:45:31.475Z,100269.00
2019-03-16T12:48:00.868Z,100270.00
2019-03-16T12:50:30.241Z,100265.00
2019-03-16T12:53:00.818Z,100271.00
2019-03-16T12:55:30.370Z,100269.00
2019-03-16T12:58:19.352Z,100256.00
2019-03-16T13:00:50.902Z,100252.00
2019-03-16T13:03:20.302Z,100248.00
2019-03-16T13:05:49.750Z,100249.00
2019-03-16T13:08:19.286Z,100251.00
2019-03-16T13:10:48.678Z,100249.00
2019-03-16T13:13:18.208Z,100255.00
2019-03-16T13:15:47.580Z,100247.00
2019-03-16T13:18:17.002Z,100252.00
2019-03-16T13:20:46.381Z,100238.00
2019-03-16T13:23:15.780Z,100245.00
2019-03-16T13:25:45.339Z,100242.00
2019-03-16T13:28:14.709Z,100237.00
2019-03-16T13:30:44.097Z,100225.00
2019-03-16T13:33:13.475Z,100230.00
2019-03-16T13:35:44.052Z,100231.00
2019-03-16T13:38:13.431Z,100228.00
2019-03-16T13:40:43.207Z,100225.00
2019-03-16T13:43:13.505Z,100217.00
2019-03-16T13:45:42.884Z,100219.00
2019-03-16T13:48:12.273Z,100217.00
2019-03-16T13:50:41.651Z,100209.00
2019-03-16T13:53:11.398Z,100201.00
2019-03-16T13:55:40.780Z,100195.00
2019-03-16T13:58:10.152Z,100194.00
2019-03-16T14:00:39.528Z,100181.00
2019-03-16T14:03:09.669Z,100187.00
2019-03-16T14:05:38.243Z,100185.00
2019-03-16T14:08:07.642Z,100173.00
2019-03-16T14:10:37.890Z,100168.00
2019-03-16T14:13:07.623Z,100163.00
2019-03-16T14:15:37.002Z,100160.00
2019-03-16T14:18:06.453Z,100147.00
2019-03-16T14:20:35.926Z,100147.00
2019-03-16T14:23:05.475Z,100142.00
2019-03-16T14:25:35.058Z,100133.00
2019-03-16T14:28:04.525Z,100138.00
2019-03-16T14:30:41.071Z,100130.00
2019-03-16T14:33:05.250Z,100124.00
2019-03-16T14:35:34.633Z,100119.00
2019-03-16T14:38:03.836Z,100115.00
2019-03-16T14:40:33.269Z,100113.00
2019-03-16T14:43:02.592Z,100106.00
2019-03-16T14:45:32.591Z,100099.00
2019-03-16T14:48:02.010Z,100101.00
2019-03-16T14:50:31.379Z,100094.00
2019-03-16T14:53:00.748Z,100085.00
2019-03-16T14:55:30.330Z,100078.00
2019-03-16T14:57:59.715Z,100084.00
2019-03-16T15:00:38.208Z,100075.00
2019-03-16T15:03:00.205Z,100078.00
2019-03-16T15:05:29.579Z,100068.00
2019-03-16T15:07:58.955Z,100066.00
2019-03-16T15:10:28.477Z,100066.00
2019-03-16T15:12:58.203Z,100055.00
2019-03-16T15:15:27.868Z,100057.00
2019-03-16T15:17:57.739Z,100060.00
2019-03-16T15:20:27.245Z,100063.00
2019-03-16T15:22:56.606Z,100056.00
2019-03-16T15:25:26.025Z,100054.00
2019-03-16T15:27:55.692Z,100052.00
2019-03-16T15:30:25.067Z,100059.00
2019-03-16T15:32:54.967Z,100054.00
2019-03-16T15:35:24.346Z,100052.00
2019-03-16T15:37:53.708Z,100037.00
2019-03-16T15:40:23.093Z,100010.00
2019-03-16T15:42:52.465Z,100024.00
2019-03-16T15:45:24.847Z,100027.00
2019-03-16T15:47:54.236Z,100029.00
2019-03-16T15:50:23.623Z,100022.00
2019-03-16T15:52:52.989Z,100016.00
2019-03-16T15:55:22.702Z,100019.00
2019-03-16T15:57:52.111Z,100027.00
2019-03-16T16:00:21.503Z,100013.00
2019-03-16T16:02:50.883Z,100022.00
2019-03-16T16:05:20.323Z,100019.00
2019-03-16T16:07:49.698Z,100025.00
2019-03-16T16:10:20.119Z,100014.00
2019-03-16T16:12:49.498Z,100008.00
2019-03-16T16:15:18.856Z,99993.00
2019-03-16T16:17:49.094Z,100001.00
2019-03-16T16:20:21.558Z,99993.00
2019-03-16T16:22:50.937Z,99987.00
2019-03-16T16:25:20.310Z,99987.00
2019-03-16T16:27:50.007Z,99986.00
2019-03-16T16:30:21.751Z,99985.00
2019-03-16T16:32:51.586Z,99985.00
2019-03-16T16:35:20.962Z,99969.00
2019-03-16T16:37:50.321Z,99974.00
2019-03-16T16:40:20.800Z,99971.00
2019-03-16T16:42:50.174Z,99974.00
2019-03-16T16:45:19.538Z,99966.00
2019-03-16T16:47:48.908Z,99968.00
2019-03-16T16:50:20.791Z,99959.00
2019-03-16T16:52:50.563Z,99966.00
2019-03-16T16:55:20.399Z,99960.00
2019-03-16T16:57:49.757Z,99974.00
2019-03-16T17:00:27.535Z,99962.00
2019-03-16T17:02:56.900Z,99958.00
2019-03-16T17:05:26.281Z,99950.00
2019-03-16T17:07:55.658Z,99951.00
2019-03-16T17:10:25.030Z,99943.00
2019-03-16T17:12:54.391Z,99953.00
2019-03-16T17:15:25.927Z,99944.00
2019-03-16T17:17:55.294Z,99943.00
2019-03-16T17:20:24.966Z,99948.00
2019-03-16T17:22:54.348Z,99937.00
2019-03-16T17:25:23.722Z,99937.00
2019-03-16T17:27:54.488Z,99938.00
2019-03-16T17:30:30.381Z,99934.00
2019-03-16T17:32:59.754Z,99933.00
2019-03-16T17:35:29.133Z,99930.00
2019-03-16T17:37:58.570Z,99925.00
2019-03-16T17:40:28.033Z,99935.00
2019-03-16T17:42:57.401Z,99944.00
2019-03-16T17:45:26.882Z,99937.00
2019-03-16T17:47:56.287Z,99935.00
2019-03-16T17:50:25.652Z,99928.00
2019-03-16T17:52:55.055Z,99929.00
2019-03-16T17:55:24.424Z,99930.00
2019-03-16T17:57:53.872Z,99929.00
2019-03-16T18:00:23.263Z,99930.00
2019-03-16T18:02:52.848Z,99935.00
2019-03-16T18:05:22.366Z,99928.00
2019-03-16T18:07:51.755Z,99941.00
2019-03-16T18:10:21.121Z,99936.00
2019-03-16T18:12:50.533Z,99937.00
2019-03-16T18:15:22.099Z,99931.00
2019-03-16T18:17:51.460Z,99922.00
2019-03-16T18:20:20.906Z,99926.00
2019-03-16T18:22:51.454Z,99931.00
2019-03-16T18:25:20.828Z,99921.00
2019-03-16T18:27:50.252Z,99909.00
2019-03-16T18:30:25.032Z,99910.00
2019-03-16T18:32:54.397Z,99909.00
2019-03-16T18:35:23.763Z,99913.00
2019-03-16T18:37:53.154Z,99905.00
2019-03-16T18:40:22.551Z,99912.00
2019-03-16T18:42:52.153Z,99915.00
2019-03-16T18:45:35.509Z,99906.00
2019-03-16T18:48:04.885Z,99912.00
2019-03-16T18:50:34.267Z,99903.00
2019-03-16T18:53:03.653Z,99900.00
2019-03-16T18:55:33.025Z,99904.00
2019-03-16T18:58:02.400Z,99907.00
2019-03-16T19:00:31.807Z,99910.00
2019-03-16T19:03:01.189Z,99912.00
2019-03-16T19:05:30.568Z,99894.00
2019-03-16T19:08:01.166Z,99897.00
2019-03-16T19:10:30.576Z,99902.00
2019-03-16T19:13:00.999Z,99899.00
2019-03-16T19:15:30.380Z,99895.00
2019-03-16T19:18:00.782Z,99899.00
2019-03-16T19:20:30.155Z,99896.00
2019-03-16T19:23:01.119Z,99904.00
2019-03-16T19:25:30.584Z,99896.00
2019-03-16T19:27:59.962Z,99900.00
2019-03-16T19:30:29.376Z,99899.00
2019-03-16T19:32:58.806Z,99903.00
2019-03-16T19:35:28.127Z,99884.00
2019-03-16T19:37:57.952Z,99881.00
2019-03-16T19:40:27.444Z,99872.00
2019-03-16T19:42:56.854Z,99875.00
2019-03-16T19:45:26.248Z,99873.00
2019-03-16T19:47:55.769Z,99868.00
2019-03-16T19:50:25.226Z,99864.00
2019-03-16T19:52:55.233Z,99865.00
2019-03-16T19:55:24.622Z,99875.00
2019-03-16T19:57:56.049Z,99872.00
2019-03-16T20:00:25.430Z,99873.00
2019-03-16T20:02:55.018Z,99879.00
2019-03-16T20:05:24.563Z,99880.00
2019-03-16T20:07:53.979Z,99879.00
2019-03-16T20:10:23.516Z,99876.00
2019-03-16T20:12:53.606Z,99882.00
2019-03-16T20:15:23.132Z,99874.00
2019-03-16T20:17:52.598Z,99881.00
2019-03-16T20:20:22.000Z,99873.00
2019-03-16T20:22:51.518Z,99880.00
2019-03-16T20:25:22.343Z,99873.00
2019-03-16T20:27:52.884Z,99877.00
2019-03-16T20:30:26.904Z,99880.00
2019-03-16T20:33:03.202Z,99875.00
2019-03-16T20:35:24.517Z,99879.00
2019-03-16T20:37:54.241Z,99866.00
2019-03-16T20:40:23.694Z,99884.00
2019-03-16T20:42:53.038Z,99873.00
2019-03-16T20:45:22.487Z,99878.00
2019-03-16T20:47:51.954Z,99878.00
2019-03-16T20:50:21.692Z,99884.00
2019-03-16T20:52:51.113Z,99875.00
2019-03-16T20:55:21.626Z,99882.00
2019-03-16T20:57:50.989Z,99879.00
2019-03-16T21:00:21.390Z,99879.00
2019-03-16T21:02:50.753Z,99887.00
2019-03-16T21:05:20.294Z,99886.00
2019-03-16T21:07:50.605Z,99878.00
2019-03-16T21:10:21.113Z,99871.00
2019-03-16T21:12:50.481Z,99881.00
2019-03-16T21:15:20.288Z,99877.00
2019-03-16T21:17:49.656Z,99875.00
2019-03-16T21:20:20.273Z,99876.00
2019-03-16T21:22:50.012Z,99867.00
2019-03-16T21:25:19.389Z,99872.00
2019-03-16T21:27:49.326Z,99861.00
2019-03-16T21:30:21.459Z,99853.00
2019-03-16T21:32:50.905Z,99856.00
2019-03-16T21:35:20.428Z,99853.00
2019-03-16T21:37:49.801Z,99852.00
2019-03-16T21:40:19.272Z,99851.00
2019-03-16T21:42:48.604Z,99853.00
2019-03-16T21:45:18.011Z,99858.00
2019-03-16T21:47:59.174Z,99847.00
2019-03-16T21:50:18.464Z,99858.00
2019-03-16T21:52:47.841Z,99858.00
2019-03-16T21:55:17.210Z,99860.00
2019-03-16T21:57:46.577Z,99854.00
2019-03-16T22:00:18.239Z,99849.00
2019-03-16T22:02:47.767Z,99851.00
2019-03-16T22:05:17.148Z,99848.00
2019-03-16T22:07:46.548Z,99845.00
2019-03-16T22:10:19.011Z,99849.00
2019-03-16T22:12:48.389Z,99849.00
2019-03-16T22:15:18.136Z,99843.00
2019-03-16T22:17:47.497Z,99845.00
2019-03-16T22:20:22.069Z,99842.00
2019-03-16T22:22:51.957Z,99845.00
2019-03-16T22:25:21.324Z,99836.00
2019-03-16T22:27:51.866Z,99831.00
2019-03-16T22:30:21.793Z,99826.00
2019-03-16T22:32:51.162Z,99819.00
2019-03-16T22:35:20.530Z,99827.00
2019-03-16T22:37:49.913Z,99829.00
2019-03-16T22:40:19.283Z,99835.00
2019-03-16T22:42:48.662Z,99831.00
2019-03-16T22:45:18.432Z,99825.00
2019-03-16T22:47:48.724Z,99826.00
2019-03-16T22:50:20.358Z,99825.00
2019-03-16T22:52:50.149Z,99823.00
2019-03-16T22:55:19.506Z,99821.00
2019-03-16T22:57:48.872Z,99807.00
2019-03-16T23:00:26.242Z,99809.00
2019-03-16T23:02:55.603Z,99821.00
2019-03-16T23:05:24.970Z,99809.00
2019-03-16T23:07:54.342Z,99817.00
2019-03-16T23:10:23.709Z,99824.00
2019-03-16T23:12:53.100Z,99828.00
2019-03-16T23:15:22.558Z,99819.00
2019-03-16T23:17:52.929Z,99820.00
2019-03-16T23:20:22.344Z,99819.00
2019-03-16T23:22:52.070Z,99811.00
2019-03-16T23:25:21.432Z,99812.00
2019-03-16T23:27:50.854Z,99811.00
2019-03-16T23:30:20.256Z,99817.00
2019-03-16T23:32:50.284Z,99802.00
2019-03-16T23:35:19.707Z,99807.00
2019-03-16T23:37:49.095Z,99801.00
2019-03-16T23:40:18.464Z,99801.00
2019-03-16T23:42:47.825Z,99791.00
2019-03-16T23:45:17.272Z,99799.00
2019-03-16T23:47:46.646Z,99795.00
2019-03-16T23:50:18.020Z,99798.00
2019-03-16T23:52:47.395Z,99788.00
2019-03-16T23:55:16.765Z,99774.00
2019-03-16T23:57:46.131Z,99779.00
